Time,TemperatureF,DewpointF,PressureIn,WindDirection,WindDirectionDegrees,WindSpeedMPH,WindSpeedGustMPH,Humidity,HourlyPrecipIn,Conditions,Clouds,dailyrainin,SoftwareType,DateUTC
2013-04-10 00:00:00,72.6,55.5,30.05,WNW,283,0.0,1.1,55,0.00,CLR,,0.00,WeatherDisplay:10.37,2013-04-10 04:00:00,
2013-04-10 00:02:00,72.4,55.3,30.05,WNW,290,1.7,4.0,55,0.00,CLR,,0.00,WeatherDisplay:10.37,2013-04-10 04:02:00,
2013-04-10 00:05:00,72.6,55.5,30.05,NNW,328,1.9,3.5,55,0.00,CLR,,0.00,WeatherDisplay:10.37,2013-04-10 04:05:00,
2013-04-10 00:10:00,72.7,55.6,30.05,West,279,0.7,3.0,55,0.00,CLR,,0.00,WeatherDisplay:10.37,2013-04-10 04:10:00,
2013-04-10 00:15:00,73.0,55.9,30.05,North,11,0.0,2.3,55,0.00,CLR,,0.00,WeatherDisplay:10.37,2013-04-10 04:15:00,
2013-04-10 00:20:00,73.0,55.9,30.05,SSW,211,2.8,9.2,55,0.00,CLR,,0.00,WeatherDisplay:10.37,2013-04-10 04:20:00,
2013-04-10 00:25:00,73.1,55.5,30.05,West,274,1.0,4.6,54,0.00,CLR,,0.00,WeatherDisplay:10.37,2013-04-10 04:25:00,
2013-04-10 00:30:00,73.1,55.5,30.06,SW,215,0.5,3.5,54,0.00,CLR,,0.00,WeatherDisplay:10.37,2013-04-10 04:30:00,
2013-04-10 00:35:00,73.2,55.6,30.05,WSW,253,3.1,5.0,54,0.00,CLR,,0.00,WeatherDisplay:10.37,2013-04-10 04:35:00,
2013-04-10 00:40:00,73.0,55.9,30.05,WSW,238,0.0,2.3,55,0.00,CLR,,0.00,WeatherDisplay:10.37,2013-04-10 04:40:00,
2013-04-10 00:45:00,72.6,55.5,30.06,East,79,1.6,2.0,55,0.00,CLR,,0.00,WeatherDisplay:10.37,2013-04-10 04:45:00,
2013-04-10 00:50:00,71.8,55.7,30.05,ENE,75,1.0,1.1,57,0.00,CLR,,0.00,WeatherDisplay:10.37,2013-04-10 04:50:00,
2013-04-10 00:55:00,71.1,55.6,30.05,ENE,78,0.1,1.1,58,0.00,CLR,,0.00,WeatherDisplay:10.37,2013-04-10 04:55:00,
2013-04-10 01:00:00,71.1,55.6,30.05,East,84,1.9,2.3,58,0.00,CLR,,0.00,WeatherDisplay:10.37,2013-04-10 05:00:00,
2013-04-10 01:05:00,71.4,55.4,30.06,NE,44,1.1,2.3,57,0.00,CLR,,0.00,WeatherDisplay:10.37,2013-04-10 05:05:00,
2013-04-10 01:10:00,71.5,55.5,30.05,WNW,303,1.7,4.0,57,0.00,CLR,,0.00,WeatherDisplay:10.37,2013-04-10 05:10:00,
2013-04-10 01:15:00,71.6,55.6,30.06,SSE,150,0.8,1.1,57,0.00,CLR,,0.00,WeatherDisplay:10.37,2013-04-10 05:15:00,
2013-04-10 01:20:00,70.3,55.3,30.06,SW,232,1.4,4.0,59,0.00,CLR,,0.00,WeatherDisplay:10.37,2013-04-10 05:20:00,
2013-04-10 01:26:00,69.1,55.1,30.05,East,101,0.1,2.3,61,0.00,CLR,,0.00,WeatherDisplay:10.37,2013-04-10 05:26:00,
2013-04-10 01:31:00,68.9,54.9,30.05,East,100,1.7,2.3,61,0.00,CLR,,0.00,WeatherDisplay:10.37,2013-04-10 05:31:00,
2013-04-10 01:37:00,70.0,55.5,30.05,SW,231,0.0,2.3,60,0.00,CLR,,0.00,WeatherDisplay:10.37,2013-04-10 05:37:00,
2013-04-10 01:42:00,69.1,55.1,30.05,SSW,202,0.0,1.1,61,0.00,CLR,,0.00,WeatherDisplay:10.37,2013-04-10 05:42:00,
2013-04-10 01:48:00,69.5,55.5,30.05,SSW,207,0.0,1.1,61,0.00,CLR,,0.00,WeatherDisplay:10.37,2013-04-10 05:48:00,
2013-04-10 01:53:00,68.8,55.2,30.05,SSE,159,0.0,0.0,62,0.00,CLR,,0.00,WeatherDisplay:10.37,2013-04-10 05:53:00,
2013-04-10 01:58:00,68.2,55.1,30.05,South,189,1.0,0.0,63,0.00,CLR,,0.00,WeatherDisplay:10.37,2013-04-10 05:58:00,
2013-04-10 02:04:00,67.7,55.1,30.05,NNE,25,1.0,1.1,64,0.00,CLR,,0.00,WeatherDisplay:10.37,2013-04-10 06:04:00,
2013-04-10 02:09:00,68.2,55.1,30.05,East,82,1.0,2.3,63,0.00,CLR,,0.00,WeatherDisplay:10.37,2013-04-10 06:09:00,
2013-04-10 02:14:00,68.4,54.9,30.05,SSE,150,0.2,1.1,62,0.00,CLR,,0.00,WeatherDisplay:10.37,2013-04-10 06:14:00,
2013-04-10 02:19:00,67.6,55.0,30.05,East,99,1.9,3.5,64,0.00,CLR,,0.00,WeatherDisplay:10.37,2013-04-10 06:19:00,
2013-04-10 02:24:00,67.0,54.8,30.05,SE,128,0.0,1.1,65,0.00,CLR,,0.00,WeatherDisplay:10.37,2013-04-10 06:24:00,
2013-04-10 02:29:00,66.9,54.7,30.05,SW,235,0.4,2.3,65,0.00,CLR,,0.00,WeatherDisplay:10.37,2013-04-10 06:29:00,
2013-04-10 02:34:00,68.2,55.1,30.05,WSW,243,1.8,9.2,63,0.00,CLR,,0.00,WeatherDisplay:10.37,2013-04-10 06:34:00,
2013-04-10 02:39:00,69.2,55.2,30.04,SSW,204,1.4,4.6,61,0.00,CLR,,0.00,WeatherDisplay:10.37,2013-04-10 06:39:00,
2013-04-10 02:44:00,69.2,55.2,30.04,ESE,110,0.1,2.3,61,0.00,CLR,,0.00,WeatherDisplay:10.37,2013-04-10 06:44:00,
2013-04-10 02:49:00,68.4,54.9,30.04,SE,141,1.5,3.0,62,0.00,CLR,,0.00,WeatherDisplay:10.37,2013-04-10 06:49:00,
2013-04-10 02:54:00,68.0,54.9,30.04,West,259,0.0,3.5,63,0.00,CLR,,0.00,WeatherDisplay:10.37,2013-04-10 06:54:00,
2013-04-10 02:59:00,67.4,54.8,30.04,ESE,106,0.0,2.3,64,0.00,CLR,,0.00,WeatherDisplay:10.37,2013-04-10 06:59:00,
2013-04-10 03:04:00,67.4,55.2,30.04,South,174,1.6,3.5,65,0.00,CLR,,0.00,WeatherDisplay:10.37,2013-04-10 07:04:00,
2013-04-10 03:09:00,67.9,55.3,30.04,SSW,210,1.2,2.3,64,0.00,CLR,,0.00,WeatherDisplay:10.37,2013-04-10 07:09:00,
2013-04-10 03:14:00,67.7,55.1,30.04,NW,319,0.0,0.0,64,0.00,CLR,,0.00,WeatherDisplay:10.37,2013-04-10 07:14:00,
2013-04-10 03:19:00,67.4,55.2,30.04,NW,326,0.0,1.1,65,0.00,CLR,,0.00,WeatherDisplay:10.37,2013-04-10 07:19:00,
2013-04-10 03:24:00,66.8,55.1,30.04,North,6,0.3,1.1,66,0.00,CLR,,0.00,WeatherDisplay:10.37,2013-04-10 07:24:00,
2013-04-10 03:29:00,66.3,55.0,30.05,WSW,246,0.4,1.1,67,0.00,CLR,,0.00,WeatherDisplay:10.37,2013-04-10 07:29:00,
2013-04-10 03:34:00,66.0,54.7,30.05,ENE,68,0.5,1.1,67,0.00,CLR,,0.00,WeatherDisplay:10.37,2013-04-10 07:34:00,
2013-04-10 03:39:00,66.0,54.7,30.05,NNW,338,0.0,1.1,67,0.00,CLR,,0.00,WeatherDisplay:10.37,2013-04-10 07:39:00,
2013-04-10 03:44:00,65.7,54.8,30.05,NE,51,0.3,1.1,68,0.00,CLR,,0.00,WeatherDisplay:10.37,2013-04-10 07:44:00,
2013-04-10 03:49:00,65.9,55.0,30.05,East,82,0.9,1.1,68,0.00,CLR,,0.00,WeatherDisplay:10.37,2013-04-10 07:49:00,
2013-04-10 03:54:00,66.4,55.1,30.05,WNW,287,0.0,0.0,67,0.00,CLR,,0.00,WeatherDisplay:10.37,2013-04-10 07:54:00,
2013-04-10 03:59:00,66.3,55.0,30.05,West,276,0.4,2.3,67,0.00,CLR,,0.00,WeatherDisplay:10.37,2013-04-10 07:59:00,
2013-04-10 04:04:00,65.6,54.8,30.05,West,276,0.0,0.0,68,0.00,CLR,,0.00,WeatherDisplay:10.37,2013-04-10 08:04:00,
2013-04-10 04:09:00,66.1,55.2,30.05,NE,49,0.0,2.3,68,0.00,CLR,,0.00,WeatherDisplay:10.37,2013-04-10 08:09:00,
2013-04-10 04:14:00,65.6,54.8,30.05,WSW,250,1.2,2.3,68,0.00,CLR,,0.00,WeatherDisplay:10.37,2013-04-10 08:14:00,
2013-04-10 04:19:00,65.4,55.0,30.05,ESE,112,0.7,1.1,69,0.00,CLR,,0.00,WeatherDisplay:10.37,2013-04-10 08:19:00,
2013-04-10 04:24:00,65.1,55.1,30.05,SSE,160,0.0,0.0,70,0.00,CLR,,0.00,WeatherDisplay:10.37,2013-04-10 08:24:00,
2013-04-10 04:29:00,64.8,54.8,30.05,East,80,0.2,2.3,70,0.00,CLR,,0.00,WeatherDisplay:10.37,2013-04-10 08:29:00,
2013-04-10 04:34:00,64.2,54.6,30.05,SSE,167,0.0,0.0,71,0.00,CLR,,0.00,WeatherDisplay:10.37,2013-04-10 08:34:00,
2013-04-10 04:39:00,64.1,54.9,30.05,SSE,167,0.0,0.0,72,0.00,CLR,,0.00,WeatherDisplay:10.37,2013-04-10 08:39:00,
2013-04-10 04:44:00,63.9,54.7,30.05,ESE,121,0.4,1.1,72,0.00,CLR,,0.00,WeatherDisplay:10.37,2013-04-10 08:44:00,
2013-04-10 04:49:00,64.0,54.8,30.05,ESE,111,0.1,1.1,72,0.00,CLR,,0.00,WeatherDisplay:10.37,2013-04-10 08:49:00,
2013-04-10 04:54:00,64.3,54.7,30.06,East,91,0.2,2.3,71,0.00,CLR,,0.00,WeatherDisplay:10.37,2013-04-10 08:54:00,
2013-04-10 04:59:00,64.5,54.9,30.05,ESE,117,0.7,2.3,71,0.00,CLR,,0.00,WeatherDisplay:10.37,2013-04-10 08:59:00,
2013-04-10 05:04:00,64.2,55.0,30.05,ENE,77,2.6,3.5,72,0.00,CLR,,0.00,WeatherDisplay:10.37,2013-04-10 09:04:00,
2013-04-10 05:09:00,64.0,54.8,30.06,SW,236,0.7,3.5,72,0.00,CLR,,0.00,WeatherDisplay:10.37,2013-04-10 09:09:00,
2013-04-10 05:14:00,63.8,54.6,30.05,ENE,62,0.4,2.3,72,0.00,CLR,,0.00,WeatherDisplay:10.37,2013-04-10 09:14:00,
2013-04-10 05:19:00,64.3,55.1,30.05,ENE,70,1.8,4.0,72,0.00,CLR,,0.00,WeatherDisplay:10.37,2013-04-10 09:19:00,
2013-04-10 05:25:00,64.7,55.1,30.05,East,99,0.7,3.0,71,0.00,CLR,,0.00,WeatherDisplay:10.37,2013-04-10 09:25:00,
2013-04-10 05:30:00,65.1,55.1,30.06,West,277,0.0,3.5,70,0.00,CLR,,0.00,WeatherDisplay:10.37,2013-04-10 09:30:00,
2013-04-10 05:35:00,64.9,55.3,30.05,SSE,158,0.0,2.3,71,0.00,CLR,,0.00,WeatherDisplay:10.37,2013-04-10 09:35:00,
2013-04-10 05:40:00,64.5,54.9,30.06,SE,129,0.0,3.5,71,0.00,CLR,,0.00,WeatherDisplay:10.37,2013-04-10 09:40:00,
2013-04-10 05:45:00,64.4,54.8,30.06,SE,124,0.2,1.1,71,0.00,CLR,,0.00,WeatherDisplay:10.37,2013-04-10 09:45:00,
2013-04-10 05:51:00,65.8,55.3,30.06,East,85,1.0,5.0,69,0.00,CLR,,0.00,WeatherDisplay:10.37,2013-04-10 09:51:00,
2013-04-10 05:57:00,68.1,55.5,30.06,North,5,0.7,3.5,64,0.00,CLR,,0.00,WeatherDisplay:10.37,2013-04-10 09:57:00,
2013-04-10 06:02:00,69.1,55.5,30.06,WSW,255,0.3,8.1,62,0.00,CLR,,0.00,WeatherDisplay:10.37,2013-04-10 10:02:00,
2013-04-10 06:07:00,70.0,55.5,30.06,NNW,340,2.0,6.9,60,0.00,CLR,,0.00,WeatherDisplay:10.37,2013-04-10 10:07:00,
2013-04-10 06:12:00,69.7,55.2,30.06,West,280,1.8,4.0,60,0.00,CLR,,0.00,WeatherDisplay:10.37,2013-04-10 10:12:00,
2013-04-10 06:18:00,69.0,55.4,30.06,SW,215,1.2,2.3,62,0.00,CLR,,0.00,WeatherDisplay:10.37,2013-04-10 10:18:00,
2013-04-10 06:23:00,67.9,55.3,30.06,West,278,0.5,1.0,64,0.00,CLR,,0.00,WeatherDisplay:10.37,2013-04-10 10:23:00,
2013-04-10 06:28:00,67.2,55.0,30.06,West,281,0.0,0.0,65,0.00,CLR,,0.00,WeatherDisplay:10.37,2013-04-10 10:28:00,
2013-04-10 06:34:00,67.4,55.2,30.06,SW,217,0.0,1.1,65,0.00,CLR,,0.00,WeatherDisplay:10.37,2013-04-10 10:34:00,
2013-04-10 06:39:00,67.9,55.3,30.06,WNW,295,0.2,3.0,64,0.00,CLR,,0.00,WeatherDisplay:10.37,2013-04-10 10:39:00,
2013-04-10 06:44:00,68.5,55.4,30.07,WSW,245,0.5,2.0,63,0.00,CLR,,0.00,WeatherDisplay:10.37,2013-04-10 10:44:00,
2013-04-10 06:50:00,68.9,55.3,30.07,WSW,253,0.3,3.5,62,0.00,CLR,,0.00,WeatherDisplay:10.37,2013-04-10 10:50:00,
2013-04-10 06:55:00,68.6,54.6,30.07,WNW,288,0.8,2.3,61,0.00,CLR,,0.00,WeatherDisplay:10.37,2013-04-10 10:55:00,
2013-04-10 07:02:00,70.1,55.1,30.07,ESE,105,0.0,3.5,59,0.00,CLR,,0.00,WeatherDisplay:10.37,2013-04-10 11:02:00,
2013-04-10 07:07:00,69.9,54.9,30.07,SW,233,2.0,3.5,59,0.00,CLR,,0.00,WeatherDisplay:10.37,2013-04-10 11:07:00,
2013-04-10 07:12:00,69.9,54.9,30.07,South,178,0.0,2.3,59,0.00,CLR,,0.00,WeatherDisplay:10.37,2013-04-10 11:12:00,
2013-04-10 07:17:00,68.5,55.0,30.08,SE,126,0.0,1.1,62,0.00,CLR,,0.00,WeatherDisplay:10.37,2013-04-10 11:17:00,
2013-04-10 07:23:00,67.9,54.8,30.08,ESE,107,0.0,0.0,63,0.00,CLR,,0.00,WeatherDisplay:10.37,2013-04-10 11:23:00,
2013-04-10 07:28:00,67.5,54.9,30.08,SE,124,0.0,1.1,64,0.00,CLR,,0.00,WeatherDisplay:10.37,2013-04-10 11:28:00,
2013-04-10 07:33:00,67.5,54.9,30.08,SE,124,0.0,0.0,64,0.00,CLR,,0.00,WeatherDisplay:10.37,2013-04-10 11:33:00,
2013-04-10 07:38:00,67.7,55.1,30.08,ESE,106,1.0,0.0,64,0.00,CLR,,0.00,WeatherDisplay:10.37,2013-04-10 11:38:00,
2013-04-10 07:43:00,67.8,55.1,30.08,East,98,0.0,0.0,64,0.00,CLR,,0.00,WeatherDisplay:10.37,2013-04-10 11:43:00,
2013-04-10 07:48:00,67.8,55.2,30.08,SE,131,0.0,0.0,64,0.00,CLR,,0.00,WeatherDisplay:10.37,2013-04-10 11:48:00,
2013-04-10 07:54:00,68.3,55.6,30.08,ESE,121,0.0,0.0,64,0.00,CLR,,0.00,WeatherDisplay:10.37,2013-04-10 11:54:00,
2013-04-10 07:59:00,68.4,55.3,30.08,ESE,121,0.0,0.0,63,0.00,CLR,,0.00,WeatherDisplay:10.37,2013-04-10 11:59:00,
2013-04-10 08:04:00,69.1,55.5,30.08,ESE,121,0.0,1.1,62,0.00,CLR,,0.00,WeatherDisplay:10.37,2013-04-10 12:04:00,
2013-04-10 08:10:00,69.9,55.4,30.08,NNW,333,0.0,1.1,60,0.00,CLR,,0.00,WeatherDisplay:10.37,2013-04-10 12:10:00,
2013-04-10 08:15:00,70.7,55.7,30.08,WSW,257,0.6,2.0,59,0.00,CLR,,0.00,WeatherDisplay:10.37,2013-04-10 12:15:00,
2013-04-10 08:20:00,70.3,56.7,30.08,WSW,257,0.5,1.1,62,0.00,CLR,,0.00,WeatherDisplay:10.37,2013-04-10 12:20:00,
2013-04-10 08:25:00,69.7,57.0,30.08,NE,53,1.0,3.0,64,0.00,CLR,,0.00,WeatherDisplay:10.37,2013-04-10 12:25:00,
2013-04-10 08:31:00,69.4,57.1,30.08,WSW,250,0.0,1.1,65,0.00,CLR,,0.00,WeatherDisplay:10.37,2013-04-10 12:31:00,
2013-04-10 08:37:00,69.3,57.0,30.09,NE,40,0.1,1.1,65,0.00,CLR,,0.00,WeatherDisplay:10.37,2013-04-10 12:37:00,
2013-04-10 08:42:00,69.2,56.5,30.09,NNE,18,0.9,2.3,64,0.00,CLR,,0.00,WeatherDisplay:10.37,2013-04-10 12:42:00,
2013-04-10 08:47:00,69.1,56.8,30.09,NNE,18,0.0,1.1,65,0.00,CLR,,0.00,WeatherDisplay:10.37,2013-04-10 12:47:00,
2013-04-10 08:52:00,69.0,56.7,30.09,SSE,148,0.1,1.1,65,0.00,CLR,,0.00,WeatherDisplay:10.37,2013-04-10 12:52:00,
2013-04-10 08:57:00,69.1,57.7,30.09,NW,309,0.5,2.3,67,0.00,CLR,,0.00,WeatherDisplay:10.37,2013-04-10 12:57:00,
2013-04-10 09:02:00,69.1,57.7,30.09,NW,311,0.0,0.0,67,0.00,CLR,,0.00,WeatherDisplay:10.37,2013-04-10 13:02:00,
2013-04-10 09:07:00,69.3,58.3,30.09,NE,53,0.0,0.0,68,0.00,CLR,,0.00,WeatherDisplay:10.37,2013-04-10 13:07:00,
2013-04-10 09:12:00,69.4,58.0,30.10,NE,53,0.4,1.0,67,0.00,CLR,,0.00,WeatherDisplay:10.37,2013-04-10 13:12:00,
2013-04-10 09:17:00,69.8,56.2,30.09,NE,52,0.0,0.0,62,0.00,CLR,,0.00,WeatherDisplay:10.37,2013-04-10 13:17:00,
2013-04-10 09:22:00,70.6,56.5,30.10,SW,222,0.1,1.1,61,0.00,CLR,,0.00,WeatherDisplay:10.37,2013-04-10 13:22:00,
2013-04-10 09:28:00,72.5,55.9,30.10,NW,316,1.0,8.1,56,0.00,CLR,,0.00,WeatherDisplay:10.37,2013-04-10 13:28:00,
2013-04-10 09:33:00,73.5,56.8,30.09,NNW,337,0.7,2.3,56,0.00,CLR,,0.00,WeatherDisplay:10.37,2013-04-10 13:33:00,
2013-04-10 09:38:00,73.9,56.2,30.09,SW,235,0.3,3.5,54,0.00,CLR,,0.00,WeatherDisplay:10.37,2013-04-10 13:38:00,
2013-04-10 09:43:00,74.2,56.0,30.09,West,269,1.2,2.0,53,0.00,CLR,,0.00,WeatherDisplay:10.37,2013-04-10 13:43:00,
2013-04-10 09:48:00,74.5,56.8,30.09,SE,128,0.7,1.1,54,0.00,CLR,,0.00,WeatherDisplay:10.37,2013-04-10 13:48:00,
2013-04-10 09:53:00,74.7,57.5,30.08,ESE,115,0.0,1.0,55,0.00,CLR,,0.00,WeatherDisplay:10.37,2013-04-10 13:53:00,
2013-04-10 09:58:00,75.1,56.8,30.08,SE,139,1.3,2.3,53,0.00,CLR,,0.00,WeatherDisplay:10.37,2013-04-10 13:58:00,
2013-04-10 10:03:00,75.3,56.5,30.08,SE,132,0.4,3.5,52,0.00,CLR,,0.00,WeatherDisplay:10.37,2013-04-10 14:03:00,
2013-04-10 10:08:00,75.7,56.8,30.08,West,274,0.6,4.6,52,0.00,CLR,,0.00,WeatherDisplay:10.37,2013-04-10 14:08:00,
2013-04-10 10:13:00,76.1,56.1,30.09,NE,46,0.0,1.1,50,0.00,CLR,,0.00,WeatherDisplay:10.37,2013-04-10 14:13:00,
2013-04-10 10:18:00,76.7,56.1,30.09,NNW,345,1.4,3.5,49,0.00,CLR,,0.00,WeatherDisplay:10.37,2013-04-10 14:18:00,
2013-04-10 10:23:00,77.2,56.6,30.09,NNW,343,2.7,5.0,49,0.00,CLR,,0.00,WeatherDisplay:10.37,2013-04-10 14:23:00,
2013-04-10 10:28:00,77.5,56.8,30.08,ENE,71,1.4,5.0,49,0.00,CLR,,0.00,WeatherDisplay:10.37,2013-04-10 14:28:00,
2013-04-10 10:33:00,77.9,56.6,30.09,West,271,3.9,6.0,48,0.00,CLR,,0.00,WeatherDisplay:10.37,2013-04-10 14:33:00,
2013-04-10 10:38:00,78.0,56.7,30.09,NW,311,2.4,5.8,48,0.00,CLR,,0.00,WeatherDisplay:10.37,2013-04-10 14:38:00,
2013-04-10 10:43:00,78.3,56.4,30.09,WNW,284,3.9,8.1,47,0.00,CLR,,0.00,WeatherDisplay:10.37,2013-04-10 14:43:00,
2013-04-10 10:48:00,78.4,56.5,30.08,NW,307,5.0,0.0,47,0.00,CLR,,0.00,WeatherDisplay:10.37,2013-04-10 14:48:00,
2013-04-10 10:54:00,78.6,57.3,30.08,North,349,1.6,3.5,48,0.00,CLR,,0.00,WeatherDisplay:10.37,2013-04-10 14:54:00,
2013-04-10 11:00:00,79.0,57.0,30.08,WNW,283,2.8,4.0,47,0.00,CLR,,0.00,WeatherDisplay:10.37,2013-04-10 15:00:00,
2013-04-10 11:05:00,79.4,57.4,30.08,NNW,340,1.6,4.6,47,0.00,CLR,,0.00,WeatherDisplay:10.37,2013-04-10 15:05:00,
2013-04-10 11:10:00,79.5,56.9,30.08,NNW,338,1.5,3.0,46,0.00,CLR,,0.00,WeatherDisplay:10.37,2013-04-10 15:10:00,
2013-04-10 11:15:00,79.8,57.2,30.08,SW,225,3.8,5.0,46,0.00,CLR,,0.00,WeatherDisplay:10.37,2013-04-10 15:15:00,
2013-04-10 11:20:00,80.3,57.0,30.08,WSW,242,2.6,5.0,45,0.00,CLR,,0.00,WeatherDisplay:10.37,2013-04-10 15:20:00,
2013-04-10 11:25:00,80.6,57.9,30.08,SW,217,1.6,6.9,46,0.00,CLR,,0.00,WeatherDisplay:10.37,2013-04-10 15:25:00,
2013-04-10 11:30:00,81.2,57.2,30.08,West,259,2.1,7.0,44,0.00,CLR,,0.00,WeatherDisplay:10.37,2013-04-10 15:30:00,
2013-04-10 11:35:00,81.6,57.6,30.08,South,185,0.8,3.5,44,0.00,CLR,,0.00,WeatherDisplay:10.37,2013-04-10 15:35:00,
2013-04-10 11:40:00,81.9,57.2,30.08,WNW,294,4.4,6.0,43,0.00,CLR,,0.00,WeatherDisplay:10.37,2013-04-10 15:40:00,
2013-04-10 11:45:00,81.8,58.4,30.08,SSW,207,2.5,6.9,45,0.00,CLR,,0.00,WeatherDisplay:10.37,2013-04-10 15:45:00,
2013-04-10 11:50:00,82.0,58.6,30.08,West,277,0.2,2.3,45,0.00,CLR,,0.00,WeatherDisplay:10.37,2013-04-10 15:50:00,
2013-04-10 11:55:00,82.0,57.3,30.08,SSW,208,2.7,5.8,43,0.00,CLR,,0.00,WeatherDisplay:10.37,2013-04-10 15:55:00,
2013-04-10 12:00:00,82.5,58.4,30.08,NNW,328,1.5,3.5,44,0.00,CLR,,0.00,WeatherDisplay:10.37,2013-04-10 16:00:00,
2013-04-10 12:05:00,82.1,56.7,30.07,SE,134,2.1,8.1,42,0.00,CLR,,0.00,WeatherDisplay:10.37,2013-04-10 16:05:00,
2013-04-10 12:12:00,82.9,58.1,30.07,South,183,1.5,4.0,43,0.00,CLR,,0.00,WeatherDisplay:10.37,2013-04-10 16:12:00,
2013-04-10 12:18:00,82.5,57.1,30.07,NE,41,0.9,8.1,42,0.00,CLR,,0.00,WeatherDisplay:10.37,2013-04-10 16:18:00,
2013-04-10 12:23:00,82.8,58.7,30.07,SW,236,1.4,3.0,44,0.00,CLR,,0.00,WeatherDisplay:10.37,2013-04-10 16:23:00,
2013-04-10 12:28:00,83.0,57.5,30.07,NE,49,1.2,3.5,42,0.00,CLR,,0.00,WeatherDisplay:10.37,2013-04-10 16:28:00,
2013-04-10 12:33:00,83.8,57.6,30.06,West,269,1.8,4.6,41,0.00,CLR,,0.00,WeatherDisplay:10.37,2013-04-10 16:33:00,
2013-04-10 12:38:00,83.7,56.8,30.06,West,271,2.0,0.0,40,0.00,CLR,,0.00,WeatherDisplay:10.37,2013-04-10 16:38:00,
2013-04-10 12:43:00,83.6,56.8,30.06,SW,230,3.0,0.0,40,0.00,CLR,,0.00,WeatherDisplay:10.37,2013-04-10 16:43:00,
2013-04-10 12:48:00,83.6,56.7,30.05,SW,221,5.0,0.0,40,0.00,CLR,,0.00,WeatherDisplay:10.37,2013-04-10 16:48:00,
2013-04-10 12:54:00,84.0,56.4,30.05,NW,304,2.2,6.0,39,0.00,CLR,,0.00,WeatherDisplay:10.37,2013-04-10 16:54:00,
2013-04-10 12:59:00,85.1,56.6,30.05,WSW,240,0.6,6.9,38,0.00,CLR,,0.00,WeatherDisplay:10.37,2013-04-10 16:59:00,
2013-04-10 13:04:00,85.5,57.7,30.04,West,281,2.7,6.0,39,0.00,CLR,,0.00,WeatherDisplay:10.37,2013-04-10 17:04:00,
2013-04-10 13:09:00,85.6,57.1,30.04,NW,309,2.4,5.0,38,0.00,CLR,,0.00,WeatherDisplay:10.37,2013-04-10 17:09:00,
2013-04-10 13:15:00,85.7,57.2,30.04,WSW,257,2.8,5.0,38,0.00,CLR,,0.00,WeatherDisplay:10.37,2013-04-10 17:15:00,
2013-04-10 13:20:00,85.8,55.8,30.03,WSW,249,2.9,5.0,36,0.00,CLR,,0.00,WeatherDisplay:10.37,2013-04-10 17:20:00,
2013-04-10 13:25:00,85.4,56.2,30.03,WNW,286,2.0,8.1,37,0.00,CLR,,0.00,WeatherDisplay:10.37,2013-04-10 17:25:00,
2013-04-10 13:30:00,85.4,56.2,30.03,WNW,293,1.7,3.5,37,0.00,CLR,,0.00,WeatherDisplay:10.37,2013-04-10 17:30:00,
2013-04-10 13:35:00,85.4,56.2,30.03,South,190,2.0,10.4,37,0.00,CLR,,0.00,WeatherDisplay:10.37,2013-04-10 17:35:00,
2013-04-10 13:41:00,86.1,54.5,30.03,WNW,287,5.1,11.0,34,0.00,CLR,,0.00,WeatherDisplay:10.37,2013-04-10 17:41:00,
2013-04-10 13:47:00,86.1,56.0,30.02,SW,215,2.0,8.1,36,0.00,CLR,,0.00,WeatherDisplay:10.37,2013-04-10 17:47:00,
2013-04-10 13:52:00,86.3,56.2,30.02,SW,229,1.3,3.0,36,0.00,CLR,,0.00,WeatherDisplay:10.37,2013-04-10 17:52:00,
2013-04-10 13:57:00,87.2,55.4,30.02,South,181,3.8,10.4,34,0.00,CLR,,0.00,WeatherDisplay:10.37,2013-04-10 17:57:00,
2013-04-10 14:02:00,87.6,53.2,30.02,WSW,245,2.1,8.1,31,0.00,CLR,,0.00,WeatherDisplay:10.37,2013-04-10 18:02:00,
2013-04-10 14:08:00,87.6,54.9,30.01,SW,214,3.6,11.5,33,0.00,CLR,,0.00,WeatherDisplay:10.37,2013-04-10 18:08:00,
2013-04-10 14:13:00,88.0,53.6,30.01,SW,219,4.5,7.0,31,0.00,CLR,,0.00,WeatherDisplay:10.37,2013-04-10 18:13:00,
2013-04-10 14:18:00,87.7,52.4,30.01,SSW,204,4.0,7.0,30,0.00,CLR,,0.00,WeatherDisplay:10.37,2013-04-10 18:18:00,
2013-04-10 14:23:00,88.1,52.8,30.01,South,191,3.4,13.0,30,0.00,CLR,,0.00,WeatherDisplay:10.37,2013-04-10 18:23:00,
2013-04-10 14:28:00,88.6,49.3,30.01,SW,215,3.2,9.2,26,0.00,CLR,,0.00,WeatherDisplay:10.37,2013-04-10 18:28:00,
2013-04-10 14:33:00,87.9,51.7,30.00,South,180,3.3,11.5,29,0.00,CLR,,0.00,WeatherDisplay:10.37,2013-04-10 18:33:00,
2013-04-10 14:38:00,88.4,53.0,30.00,SW,227,2.2,11.5,30,0.00,CLR,,0.00,WeatherDisplay:10.37,2013-04-10 18:38:00,
2013-04-10 14:43:00,88.1,51.8,30.00,WSW,244,5.9,10.4,29,0.00,CLR,,0.00,WeatherDisplay:10.37,2013-04-10 18:43:00,
2013-04-10 14:48:00,88.3,53.8,30.00,WSW,239,2.9,6.9,31,0.00,CLR,,0.00,WeatherDisplay:10.37,2013-04-10 18:48:00,
2013-04-10 14:53:00,88.1,54.5,30.00,SSW,204,2.9,5.8,32,0.00,CLR,,0.00,WeatherDisplay:10.37,2013-04-10 18:53:00,
2013-04-10 14:58:00,88.6,55.0,29.99,SSW,203,2.2,6.0,32,0.00,CLR,,0.00,WeatherDisplay:10.37,2013-04-10 18:58:00,
2013-04-10 15:03:00,88.9,54.4,29.99,West,270,5.2,10.0,31,0.00,CLR,,0.00,WeatherDisplay:10.37,2013-04-10 19:03:00,
2013-04-10 15:08:00,88.8,54.3,29.99,NW,318,5.1,9.0,31,0.00,CLR,,0.00,WeatherDisplay:10.37,2013-04-10 19:08:00,
2013-04-10 15:13:00,89.2,54.6,29.98,WSW,242,7.2,14.0,31,0.00,CLR,,0.00,WeatherDisplay:10.37,2013-04-10 19:13:00,
2013-04-10 15:18:00,89.1,54.5,29.98,NNW,335,3.1,12.7,31,0.00,CLR,,0.00,WeatherDisplay:10.37,2013-04-10 19:18:00,
2013-04-10 15:23:00,89.5,53.0,29.98,ESE,103,2.8,9.2,29,0.00,CLR,,0.00,WeatherDisplay:10.37,2013-04-10 19:23:00,
2013-04-10 15:28:00,89.2,52.8,29.97,SW,232,7.0,0.0,29,0.00,CLR,,0.00,WeatherDisplay:10.37,2013-04-10 19:28:00,
2013-04-10 15:33:00,88.8,52.4,29.97,WSW,242,5.0,0.0,29,0.00,CLR,,0.00,WeatherDisplay:10.37,2013-04-10 19:33:00,
2013-04-10 15:39:00,89.4,53.0,29.97,SW,228,3.4,7.0,29,0.00,CLR,,0.00,WeatherDisplay:10.37,2013-04-10 19:39:00,
2013-04-10 15:44:00,89.7,53.2,29.97,WNW,301,2.8,8.0,29,0.00,CLR,,0.00,WeatherDisplay:10.37,2013-04-10 19:44:00,
2013-04-10 15:49:00,89.6,52.2,29.97,WSW,255,3.7,7.0,28,0.00,CLR,,0.00,WeatherDisplay:10.37,2013-04-10 19:49:00,
2013-04-10 15:55:00,89.4,51.0,29.96,SW,235,5.8,10.4,27,0.00,CLR,,0.00,WeatherDisplay:10.37,2013-04-10 19:55:00,
2013-04-10 16:00:00,89.1,51.7,29.96,WSW,246,7.1,11.5,28,0.00,CLR,,0.00,WeatherDisplay:10.37,2013-04-10 20:00:00,
2013-04-10 16:05:00,89.5,52.1,29.96,West,273,7.0,11.5,28,0.00,FEW,,0.00,WeatherDisplay:10.37,2013-04-10 20:05:00,
2013-04-10 16:10:00,89.5,52.1,29.96,SW,222,2.8,4.6,28,0.00,FEW,,0.00,WeatherDisplay:10.37,2013-04-10 20:10:00,
2013-04-10 16:15:00,90.2,51.7,29.96,SW,217,5.5,12.0,27,0.00,FEW,,0.00,WeatherDisplay:10.37,2013-04-10 20:15:00,
2013-04-10 16:20:00,90.4,51.9,29.95,WSW,240,0.6,4.0,27,0.00,FEW,,0.00,WeatherDisplay:10.37,2013-04-10 20:20:00,
2013-04-10 16:25:00,91.1,52.5,29.95,WSW,257,6.2,11.0,27,0.00,FEW,,0.00,WeatherDisplay:10.37,2013-04-10 20:25:00,
2013-04-10 16:30:00,90.6,52.0,29.95,WSW,252,3.3,6.0,27,0.00,FEW,,0.00,WeatherDisplay:10.37,2013-04-10 20:30:00,
2013-04-10 16:35:00,91.0,53.4,29.95,SSW,193,1.4,3.0,28,0.00,FEW,,0.00,WeatherDisplay:10.37,2013-04-10 20:35:00,
2013-04-10 16:41:00,91.1,52.5,29.95,SSW,210,2.7,7.0,27,0.00,FEW,,0.00,WeatherDisplay:10.37,2013-04-10 20:41:00,
2013-04-10 16:47:00,90.4,50.8,29.94,West,281,3.5,8.1,26,0.00,FEW,,0.00,WeatherDisplay:10.37,2013-04-10 20:47:00,
2013-04-10 16:53:00,90.2,51.7,29.94,WSW,241,4.1,8.0,27,0.00,FEW,,0.00,WeatherDisplay:10.37,2013-04-10 20:53:00,
2013-04-10 16:58:00,90.6,51.0,29.94,West,273,1.2,3.5,26,0.00,FEW,,0.00,WeatherDisplay:10.37,2013-04-10 20:58:00,
2013-04-10 17:03:00,90.7,51.1,29.93,SSE,165,5.2,7.0,26,0.00,FEW,,0.00,WeatherDisplay:10.37,2013-04-10 21:03:00,
2013-04-10 17:08:00,90.6,51.0,29.93,WSW,252,2.0,3.5,26,0.00,FEW,,0.00,WeatherDisplay:10.37,2013-04-10 21:08:00,
2013-04-10 17:13:00,90.1,52.6,29.93,SW,231,3.0,0.0,28,0.00,FEW,,0.00,WeatherDisplay:10.37,2013-04-10 21:13:00,
2013-04-10 17:19:00,90.4,51.9,29.93,NW,311,2.8,5.0,27,0.00,FEW,,0.00,WeatherDisplay:10.37,2013-04-10 21:19:00,
2013-04-10 17:24:00,90.3,52.8,29.93,SW,231,4.2,9.2,28,0.00,FEW,,0.00,WeatherDisplay:10.37,2013-04-10 21:24:00,
2013-04-10 17:29:00,90.2,52.7,29.93,SSW,209,3.3,5.0,28,0.00,FEW,,0.00,WeatherDisplay:10.37,2013-04-10 21:29:00,
2013-04-10 17:35:00,90.7,52.1,29.92,ENE,72,2.7,5.0,27,0.00,FEW,,0.00,WeatherDisplay:10.37,2013-04-10 21:35:00,
2013-04-10 17:40:00,90.6,53.0,29.92,SSW,198,0.1,3.5,28,0.00,FEW,,0.00,WeatherDisplay:10.37,2013-04-10 21:40:00,
2013-04-10 17:45:00,91.0,52.4,29.92,WNW,283,3.1,6.9,27,0.00,FEW,,0.00,WeatherDisplay:10.37,2013-04-10 21:45:00,
2013-04-10 17:50:00,91.0,55.3,29.92,SSE,153,1.9,3.5,30,0.00,FEW,,0.00,WeatherDisplay:10.37,2013-04-10 21:50:00,
2013-04-10 17:55:00,91.1,57.1,29.92,SSW,207,2.5,5.8,32,0.00,FEW,,0.00,WeatherDisplay:10.37,2013-04-10 21:55:00,
2013-04-10 18:00:00,90.6,57.6,29.92,WSW,245,1.5,2.3,33,0.00,FEW,,0.00,WeatherDisplay:10.37,2013-04-10 22:00:00,
2013-04-10 18:05:00,90.2,58.0,29.92,NNW,328,1.0,3.5,34,0.00,CLR,,0.00,WeatherDisplay:10.37,2013-04-10 22:05:00,
2013-04-10 18:10:00,89.9,57.8,29.91,ENE,58,0.0,1.1,34,0.00,CLR,,0.00,WeatherDisplay:10.37,2013-04-10 22:10:00,
2013-04-10 18:15:00,89.9,57.8,29.92,SSW,212,3.8,9.2,34,0.00,CLR,,0.00,WeatherDisplay:10.37,2013-04-10 22:15:00,
2013-04-10 18:20:00,89.6,57.5,29.92,ESE,120,0.6,2.3,34,0.00,CLR,,0.00,WeatherDisplay:10.37,2013-04-10 22:20:00,
2013-04-10 18:25:00,89.5,57.4,29.92,SSW,197,3.6,6.0,34,0.00,CLR,,0.00,WeatherDisplay:10.37,2013-04-10 22:25:00,
2013-04-10 18:30:00,88.8,56.8,29.92,SSW,205,3.3,9.2,34,0.00,CLR,,0.00,WeatherDisplay:10.37,2013-04-10 22:30:00,
2013-04-10 18:35:00,88.2,57.1,29.92,East,91,5.3,9.2,35,0.00,CLR,,0.00,WeatherDisplay:10.37,2013-04-10 22:35:00,
2013-04-10 18:40:00,87.7,56.7,29.92,WNW,293,4.3,9.0,35,0.00,CLR,,0.00,WeatherDisplay:10.37,2013-04-10 22:40:00,
2013-04-10 18:45:00,87.2,57.0,29.92,SSE,156,4.3,8.1,36,0.00,CLR,,0.00,WeatherDisplay:10.37,2013-04-10 22:45:00,
2013-04-10 18:50:00,87.0,56.8,29.92,SW,222,1.6,5.8,36,0.00,CLR,,0.00,WeatherDisplay:10.37,2013-04-10 22:50:00,
2013-04-10 18:55:00,86.6,56.5,29.92,ESE,103,4.7,9.2,36,0.00,CLR,,0.00,WeatherDisplay:10.37,2013-04-10 22:55:00,
2013-04-10 19:00:00,86.3,57.0,29.92,SSW,202,3.1,5.0,37,0.00,CLR,,0.00,WeatherDisplay:10.37,2013-04-10 23:00:00,
2013-04-10 19:05:00,86.0,56.7,29.92,ESE,122,3.7,10.4,37,0.00,CLR,,0.00,WeatherDisplay:10.37,2013-04-10 23:05:00,
2013-04-10 19:10:00,85.5,57.0,29.92,SSE,158,2.5,6.9,38,0.00,CLR,,0.00,WeatherDisplay:10.37,2013-04-10 23:10:00,
2013-04-10 19:15:00,85.2,56.7,29.92,SE,145,4.5,8.0,38,0.00,CLR,,0.00,WeatherDisplay:10.37,2013-04-10 23:15:00,
2013-04-10 19:20:00,84.6,56.2,29.92,SSW,195,3.4,6.9,38,0.00,CLR,,0.00,WeatherDisplay:10.37,2013-04-10 23:20:00,
2013-04-10 19:25:00,84.1,56.5,29.92,SSW,212,3.1,7.0,39,0.00,CLR,,0.00,WeatherDisplay:10.37,2013-04-10 23:25:00,
2013-04-10 19:30:00,83.7,56.8,29.92,SW,219,1.4,3.5,40,0.00,CLR,,0.00,WeatherDisplay:10.37,2013-04-10 23:30:00,
2013-04-10 19:36:00,83.3,56.5,29.92,ESE,107,0.0,3.5,40,0.00,CLR,,0.00,WeatherDisplay:10.37,2013-04-10 23:36:00,
2013-04-10 19:42:00,82.9,56.1,29.92,SSW,203,2.4,7.0,40,0.00,CLR,,0.00,WeatherDisplay:10.37,2013-04-10 23:42:00,
2013-04-10 19:47:00,82.5,56.4,29.92,SW,225,1.1,4.0,41,0.00,CLR,,0.00,WeatherDisplay:10.37,2013-04-10 23:47:00,
2013-04-10 19:52:00,82.2,56.2,29.92,ENE,77,1.1,6.9,41,0.00,CLR,,0.00,WeatherDisplay:10.37,2013-04-10 23:52:00,
2013-04-10 19:57:00,81.9,56.6,29.92,South,188,2.3,5.8,42,0.00,CLR,,0.00,WeatherDisplay:10.37,2013-04-10 23:57:00,
2013-04-10 20:02:00,81.6,56.3,29.92,SW,225,1.4,8.1,42,0.00,CLR,,0.00,WeatherDisplay:10.37,2013-04-11 00:02:00,
2013-04-10 20:07:00,81.5,56.8,29.92,South,191,3.0,11.5,43,0.00,CLR,,0.00,WeatherDisplay:10.37,2013-04-11 00:07:00,
2013-04-10 20:12:00,81.4,56.8,29.92,West,262,0.7,2.3,43,0.00,CLR,,0.00,WeatherDisplay:10.37,2013-04-11 00:12:00,
2013-04-10 20:18:00,80.9,56.9,29.92,East,98,0.2,2.3,44,0.00,CLR,,0.00,WeatherDisplay:10.37,2013-04-11 00:18:00,
2013-04-10 20:23:00,80.7,56.8,29.93,WNW,293,2.4,4.0,44,0.00,CLR,,0.00,WeatherDisplay:10.37,2013-04-11 00:23:00,
2013-04-10 20:28:00,80.5,56.6,29.93,WSW,249,0.5,4.6,44,0.00,CLR,,0.00,WeatherDisplay:10.37,2013-04-11 00:28:00,
2013-04-10 20:33:00,80.3,56.4,29.93,SSW,212,1.4,3.5,44,0.00,CLR,,0.00,WeatherDisplay:10.37,2013-04-11 00:33:00,
2013-04-10 20:38:00,80.2,56.3,29.93,SW,229,0.2,3.5,44,0.00,CLR,,0.00,WeatherDisplay:10.37,2013-04-11 00:38:00,
2013-04-10 20:43:00,80.1,56.8,29.93,WNW,294,4.5,8.0,45,0.00,CLR,,0.00,WeatherDisplay:10.37,2013-04-11 00:43:00,
2013-04-10 20:48:00,80.1,56.8,29.93,South,174,0.7,3.5,45,0.00,CLR,,0.00,WeatherDisplay:10.37,2013-04-11 00:48:00,
2013-04-10 20:53:00,80.1,56.8,29.93,NNW,332,1.1,4.6,45,0.00,CLR,,0.00,WeatherDisplay:10.37,2013-04-11 00:53:00,
2013-04-10 20:58:00,79.9,56.7,29.93,SSW,212,1.0,0.0,45,0.00,CLR,,0.00,WeatherDisplay:10.37,2013-04-11 00:58:00,
2013-04-10 21:03:00,79.7,56.5,29.93,SSW,192,1.0,0.0,45,0.00,CLR,,0.00,WeatherDisplay:10.37,2013-04-11 01:03:00,
2013-04-10 21:08:00,79.6,56.4,29.93,SW,218,2.0,0.0,45,0.00,CLR,,0.00,WeatherDisplay:10.37,2013-04-11 01:08:00,
2013-04-10 21:14:00,79.5,56.3,29.93,SW,232,1.9,4.0,45,0.00,CLR,,0.00,WeatherDisplay:10.37,2013-04-11 01:14:00,
2013-04-10 21:19:00,79.6,56.4,29.94,SW,226,4.1,6.9,45,0.00,CLR,,0.00,WeatherDisplay:10.37,2013-04-11 01:19:00,
2013-04-10 21:24:00,79.5,56.9,29.94,West,274,1.7,4.0,46,0.00,CLR,,0.00,WeatherDisplay:10.37,2013-04-11 01:24:00,
2013-04-10 21:29:00,79.4,56.2,29.94,ESE,113,4.2,14.0,45,0.00,CLR,,0.00,WeatherDisplay:10.37,2013-04-11 01:29:00,
2013-04-10 21:35:00,79.5,56.3,29.94,WSW,252,6.2,12.0,45,0.00,CLR,,0.00,WeatherDisplay:10.37,2013-04-11 01:35:00,
2013-04-10 21:40:00,79.4,56.2,29.94,NNW,347,6.3,10.4,45,0.00,CLR,,0.00,WeatherDisplay:10.37,2013-04-11 01:40:00,
2013-04-10 21:45:00,79.4,56.2,29.94,WSW,244,5.3,17.3,45,0.00,CLR,,0.00,WeatherDisplay:10.37,2013-04-11 01:45:00,
2013-04-10 21:50:00,79.3,56.1,29.94,SW,224,4.9,9.0,45,0.00,CLR,,0.00,WeatherDisplay:10.37,2013-04-11 01:50:00,
2013-04-10 21:55:00,79.3,56.7,29.94,NW,314,6.8,15.0,46,0.00,CLR,,0.00,WeatherDisplay:10.37,2013-04-11 01:55:00,
2013-04-10 22:00:00,79.2,56.6,29.94,NW,316,6.5,11.5,46,0.00,CLR,,0.00,WeatherDisplay:10.37,2013-04-11 02:00:00,
2013-04-10 22:05:00,78.9,56.4,29.94,NNE,18,3.3,8.0,46,0.00,CLR,,0.00,WeatherDisplay:10.37,2013-04-11 02:05:00,
2013-04-10 22:10:00,78.8,56.3,29.94,SW,219,4.3,9.0,46,0.00,CLR,,0.00,WeatherDisplay:10.37,2013-04-11 02:10:00,
2013-04-10 22:17:00,78.6,56.1,29.94,SW,221,3.2,13.8,46,0.00,CLR,,0.00,WeatherDisplay:10.37,2013-04-11 02:17:00,
2013-04-10 22:22:00,78.5,56.6,29.94,WSW,238,3.9,11.5,47,0.00,CLR,,0.00,WeatherDisplay:10.37,2013-04-11 02:22:00,
2013-04-10 22:27:00,78.4,56.5,29.94,East,91,1.1,3.5,47,0.00,CLR,,0.00,WeatherDisplay:10.37,2013-04-11 02:27:00,
2013-04-10 22:32:00,78.2,56.3,29.94,NE,51,2.0,4.0,47,0.00,CLR,,0.00,WeatherDisplay:10.37,2013-04-11 02:32:00,
2013-04-10 22:37:00,77.9,56.6,29.94,NE,44,0.9,2.0,48,0.00,CLR,,0.00,WeatherDisplay:10.37,2013-04-11 02:37:00,
2013-04-10 22:42:00,77.5,56.3,29.94,NE,38,0.1,3.5,48,0.00,CLR,,0.00,WeatherDisplay:10.37,2013-04-11 02:42:00,
2013-04-10 22:47:00,77.3,56.6,29.94,ENE,73,1.6,3.5,49,0.00,CLR,,0.00,WeatherDisplay:10.37,2013-04-11 02:47:00,
2013-04-10 22:52:00,77.3,56.6,29.94,East,84,0.5,3.5,49,0.00,CLR,,0.00,WeatherDisplay:10.37,2013-04-11 02:52:00,
2013-04-10 22:58:00,76.4,56.4,29.95,NNE,33,0.6,3.5,50,0.00,CLR,,0.00,WeatherDisplay:10.37,2013-04-11 02:58:00,
2013-04-10 23:03:00,75.5,56.6,29.95,NE,37,1.9,2.3,52,0.00,CLR,,0.00,WeatherDisplay:10.37,2013-04-11 03:03:00,
2013-04-10 23:08:00,75.0,56.7,29.94,NE,51,1.9,3.0,53,0.00,CLR,,0.00,WeatherDisplay:10.37,2013-04-11 03:08:00,
2013-04-10 23:13:00,75.0,56.7,29.94,NE,44,1.2,2.3,53,0.00,CLR,,0.00,WeatherDisplay:10.37,2013-04-11 03:13:00,
2013-04-10 23:18:00,74.8,56.5,29.95,NE,41,1.2,2.0,53,0.00,CLR,,0.00,WeatherDisplay:10.37,2013-04-11 03:18:00,
2013-04-10 23:23:00,74.3,56.6,29.94,ENE,72,1.0,1.1,54,0.00,CLR,,0.00,WeatherDisplay:10.37,2013-04-11 03:23:00,
2013-04-10 23:28:00,74.2,56.5,29.94,East,83,0.1,1.0,54,0.00,CLR,,0.00,WeatherDisplay:10.37,2013-04-11 03:28:00,
2013-04-10 23:33:00,74.2,56.5,29.94,ESE,106,0.0,0.0,54,0.00,CLR,,0.00,WeatherDisplay:10.37,2013-04-11 03:33:00,
2013-04-10 23:38:00,74.4,56.7,29.94,NNE,23,0.0,1.1,54,0.00,CLR,,0.00,WeatherDisplay:10.37,2013-04-11 03:38:00,
2013-04-10 23:43:00,74.8,57.0,29.95,NNE,25,0.0,0.0,54,0.00,CLR,,0.00,WeatherDisplay:10.37,2013-04-11 03:43:00,
2013-04-10 23:48:00,74.6,56.9,29.95,East,82,0.0,0.0,54,0.00,CLR,,0.00,WeatherDisplay:10.37,2013-04-11 03:48:00,
2013-04-10 23:53:00,74.5,56.8,29.94,East,82,1.0,0.0,54,0.00,CLR,,0.00,WeatherDisplay:10.37,2013-04-11 03:53:00,
2013-04-10 23:58:00,74.5,56.8,29.94,East,82,0.0,0.0,54,0.00,CLR,,0.00,WeatherDisplay:10.37,2013-04-11 03:58:00,